createdAt,value
2022-11-02T00:01:07.152Z,10.00
2022-11-02T00:06:13.280Z,8.99
2022-11-02T00:11:42.791Z,9.64
2022-11-02T00:16:48.870Z,9.71
2022-11-02T00:21:55.049Z,12.02
2022-11-02T00:27:01.229Z,11.40
2022-11-02T00:32:07.476Z,11.04
2022-11-02T00:37:14.306Z,7.26
2022-11-02T00:42:20.500Z,7.24
2022-11-02T00:47:26.665Z,10.04
2022-11-02T00:52:32.893Z,9.15
2022-11-02T00:57:39.271Z,8.20
2022-11-02T01:02:45.606Z,10.20
2022-11-02T01:07:51.515Z,8.92
2022-11-02T01:18:07.673Z,11.57
2022-11-02T01:23:13.849Z,9.94
2022-11-02T01:28:19.920Z,9.13
2022-11-02T01:33:26.099Z,11.06
2022-11-02T01:38:32.167Z,11.14
2022-11-02T01:43:38.371Z,9.28
2022-11-02T01:48:44.470Z,11.48
2022-11-02T01:53:50.817Z,8.88
2022-11-02T01:58:57.013Z,9.24
2022-11-02T02:04:03.989Z,11.97
2022-11-02T02:09:10.069Z,8.34
2022-11-02T02:14:16.244Z,9.97
2022-11-02T02:19:22.294Z,9.48
2022-11-02T02:24:29.424Z,10.15
2022-11-02T02:29:35.831Z,10.18
2022-11-02T02:34:41.985Z,10.64
2022-11-02T02:39:48.377Z,8.95
2022-11-02T02:44:56.145Z,10.43
2022-11-02T02:50:02.294Z,11.73
2022-11-02T02:55:08.789Z,10.24
2022-11-02T03:00:14.862Z,10.62
2022-11-02T03:05:21.092Z,8.29
2022-11-02T03:11:14.864Z,12.44
2022-11-02T03:16:21.139Z,12.95
2022-11-02T03:21:27.261Z,10.20
2022-11-02T03:26:33.462Z,8.17
2022-11-02T03:31:39.633Z,11.14
2022-11-02T03:36:46.102Z,7.85
2022-11-02T03:41:52.191Z,9.17
2022-11-02T03:46:58.410Z,10.17
2022-11-02T03:52:04.886Z,9.29
2022-11-02T03:57:11.016Z,8.47
2022-11-02T04:02:17.226Z,8.92
2022-11-02T04:07:23.356Z,7.09
2022-11-02T04:12:29.948Z,6.91
2022-11-02T04:17:36.098Z,8.05
2022-11-02T04:22:42.163Z,5.12
2022-11-02T04:27:48.304Z,7.68
2022-11-02T04:32:54.418Z,6.61
2022-11-02T04:38:00.760Z,5.49
2022-11-02T04:43:09.646Z,4.62
2022-11-02T04:48:15.797Z,5.91
2022-11-02T04:53:22.654Z,4.88
2022-11-02T04:58:29.640Z,3.31
2022-11-02T05:03:35.859Z,4.59
2022-11-02T05:08:41.993Z,3.78
2022-11-02T05:13:48.077Z,3.83
2022-11-02T05:18:54.329Z,3.27
2022-11-02T05:24:00.435Z,3.99
2022-11-02T05:29:06.836Z,4.27
2022-11-02T05:34:13.193Z,5.45
2022-11-02T05:39:19.423Z,3.77
2022-11-02T05:44:25.571Z,3.59
2022-11-02T05:49:31.815Z,3.25
2022-11-02T05:54:37.891Z,5.15
2022-11-02T05:59:46.731Z,4.14
2022-11-02T06:04:50.042Z,3.59
2022-11-02T06:09:56.102Z,3.92
2022-11-02T06:15:02.273Z,4.78
2022-11-02T06:20:08.696Z,6.57
2022-11-02T06:25:14.756Z,7.06
2022-11-02T06:30:20.941Z,7.20
2022-11-02T06:35:27.059Z,5.31
2022-11-02T06:40:33.349Z,7.10
2022-11-02T06:45:39.703Z,6.07
2022-11-02T06:50:45.849Z,7.35
2022-11-02T06:55:51.921Z,9.54
2022-11-02T07:00:58.206Z,9.56
2022-11-02T07:06:06.367Z,8.52
2022-11-02T07:11:09.904Z,8.43
2022-11-02T07:16:16.035Z,7.95
2022-11-02T07:21:22.190Z,9.79
2022-11-02T07:26:28.321Z,13.24
2022-11-02T07:31:34.477Z,9.24
2022-11-02T07:36:40.520Z,8.03
2022-11-02T07:41:50.788Z,10.43
2022-11-02T07:46:52.352Z,9.69
2022-11-02T07:51:58.550Z,8.39
2022-11-02T07:57:04.122Z,8.76
2022-11-02T08:02:10.262Z,8.89
2022-11-02T08:07:16.324Z,8.25
2022-11-02T08:12:22.778Z,9.49
2022-11-02T08:17:28.869Z,9.47
2022-11-02T08:22:35.086Z,15.66
2022-11-02T08:27:41.227Z,13.26
2022-11-02T08:32:47.409Z,12.07
2022-11-02T08:37:53.488Z,10.05
2022-11-02T08:42:59.634Z,11.56
2022-11-02T08:48:06.043Z,9.15
2022-11-02T08:53:11.439Z,19.24
2022-11-02T08:58:17.600Z,13.00
2022-11-02T09:03:26.897Z,9.99
2022-11-02T09:08:29.464Z,9.61
2022-11-02T09:13:35.617Z,12.24
2022-11-02T09:18:41.619Z,9.37
2022-11-02T09:23:47.752Z,11.21
2022-11-02T09:28:53.798Z,5.16
2022-11-02T09:33:59.963Z,6.63
2022-11-02T09:39:06.052Z,6.92
2022-11-02T09:44:12.218Z,7.29
2022-11-02T09:49:18.458Z,9.29
2022-11-02T09:54:25.120Z,8.34
2022-11-02T09:59:31.268Z,8.78
2022-11-02T10:04:37.424Z,7.50
2022-11-02T10:09:43.518Z,10.50
2022-11-02T10:15:16.468Z,9.04
2022-11-02T10:20:22.652Z,7.27
2022-11-02T10:25:28.864Z,9.38
2022-11-02T10:30:34.977Z,7.30
2022-11-02T10:35:57.562Z,6.30
2022-11-02T10:40:46.786Z,9.88
2022-11-02T10:45:52.996Z,8.10
2022-11-02T10:50:59.209Z,8.01
2022-11-02T10:56:05.663Z,8.84
2022-11-02T11:01:11.867Z,9.45
2022-11-02T11:06:17.948Z,8.58
2022-11-02T11:11:24.120Z,6.02
2022-11-02T11:16:30.304Z,8.03
2022-11-02T11:21:36.491Z,8.08
2022-11-02T11:27:20.098Z,7.26
2022-11-02T11:32:30.111Z,6.45
2022-11-02T11:37:31.964Z,9.24
2022-11-02T11:42:38.047Z,9.92
2022-11-02T11:47:44.230Z,7.72
2022-11-02T11:52:50.323Z,4.35
2022-11-02T11:57:56.639Z,6.44
2022-11-02T12:03:03.271Z,9.11
2022-11-02T12:08:08.660Z,5.82
2022-11-02T12:13:14.889Z,6.00
2022-11-02T12:18:21.172Z,6.54
2022-11-02T12:23:27.296Z,7.02
2022-11-02T12:28:33.572Z,6.03
2022-11-02T12:33:39.621Z,6.09
2022-11-02T12:38:45.822Z,6.98
2022-11-02T12:43:51.857Z,8.57
2022-11-02T12:48:58.269Z,9.92
2022-11-02T12:54:04.352Z,7.89
2022-11-02T12:59:10.555Z,8.45
2022-11-02T13:04:16.671Z,6.86
2022-11-02T13:09:22.959Z,12.62
2022-11-02T13:14:29.103Z,7.70
2022-11-02T13:19:35.280Z,10.54
2022-11-02T13:24:41.383Z,8.07
2022-11-02T13:29:47.544Z,9.23
2022-11-02T13:34:53.625Z,9.27
2022-11-02T13:39:59.813Z,8.34
2022-11-02T13:45:05.874Z,7.31
2022-11-02T13:50:12.115Z,6.19
2022-11-02T13:55:18.269Z,7.35
2022-11-02T14:00:24.596Z,6.95
2022-11-02T14:05:30.729Z,11.29
2022-11-02T14:10:36.907Z,7.22
2022-11-02T14:15:42.954Z,8.85
2022-11-02T14:20:49.183Z,7.47
2022-11-02T14:25:55.241Z,8.96
2022-11-02T14:31:01.458Z,8.04
2022-11-02T14:36:07.501Z,7.44
2022-11-02T14:41:13.738Z,6.51
2022-11-02T14:46:19.785Z,8.36
2022-11-02T14:51:25.960Z,7.04
2022-11-02T14:56:32.124Z,7.27
2022-11-02T15:01:38.329Z,6.29
2022-11-02T15:06:44.468Z,6.86
2022-11-02T15:11:50.721Z,10.00
2022-11-02T15:16:56.879Z,3.59
2022-11-02T15:22:03.209Z,6.16
2022-11-02T15:27:09.330Z,6.17
2022-11-02T15:32:19.736Z,5.46
2022-11-02T15:37:21.120Z,6.61
2022-11-02T15:42:27.500Z,9.19
2022-11-02T15:47:33.609Z,6.52
2022-11-02T15:52:50.752Z,7.66
2022-11-02T15:57:45.427Z,4.99
2022-11-02T16:02:51.581Z,5.31
2022-11-02T16:08:10.529Z,6.38
2022-11-02T16:13:03.438Z,6.82
2022-11-02T16:18:09.509Z,7.37
2022-11-02T16:23:15.836Z,5.55
2022-11-02T16:28:21.945Z,5.61
2022-11-02T16:33:30.570Z,8.26
2022-11-02T16:38:34.101Z,7.20
2022-11-02T16:43:45.476Z,7.70
2022-11-02T16:48:45.999Z,7.66
2022-11-02T16:53:52.141Z,8.07
2022-11-02T16:58:58.199Z,5.30
2022-11-02T17:04:09.108Z,6.08
2022-11-02T17:09:10.266Z,6.94
2022-11-02T17:14:16.493Z,7.48
2022-11-02T17:19:22.624Z,8.58
2022-11-02T17:24:28.964Z,7.21
2022-11-02T17:29:35.066Z,10.11
2022-11-02T17:34:41.310Z,8.56
2022-11-02T17:39:47.400Z,9.45
2022-11-02T17:44:54.109Z,8.11
2022-11-02T17:50:00.162Z,6.71
2022-11-02T17:55:06.485Z,9.18
2022-11-02T18:00:12.610Z,10.05
2022-11-02T18:01:26.942Z,9.24
2022-11-02T18:06:32.986Z,8.26
2022-11-02T18:11:39.474Z,8.64
2022-11-02T18:16:45.614Z,10.92
2022-11-02T18:21:51.707Z,8.99
2022-11-02T18:26:58.264Z,9.81
2022-11-02T18:32:04.411Z,10.60
2022-11-02T18:37:10.587Z,10.26
2022-11-02T18:42:16.803Z,10.48
2022-11-02T18:47:23.002Z,8.24
2022-11-02T18:52:32.162Z,8.12
2022-11-02T18:57:34.790Z,10.63
2022-11-02T19:02:41.111Z,7.03
2022-11-02T19:07:47.228Z,7.02
2022-11-02T19:12:54.119Z,12.25
2022-11-02T19:18:07.486Z,8.24
2022-11-02T19:23:12.592Z,11.58
2022-11-02T19:28:09.081Z,9.44
2022-11-02T19:33:14.467Z,11.43
2022-11-02T19:38:21.487Z,11.84
2022-11-02T19:43:27.648Z,13.22
2022-11-02T19:48:33.899Z,12.39
2022-11-02T19:53:40.186Z,12.66
2022-11-02T19:58:46.605Z,8.62
2022-11-02T20:03:52.760Z,10.15
2022-11-02T20:08:58.984Z,11.58
2022-11-02T20:14:05.161Z,7.73
2022-11-02T20:19:11.340Z,13.62
2022-11-02T20:24:17.498Z,7.85
2022-11-02T20:29:24.079Z,12.97
2022-11-02T20:34:30.251Z,12.82
2022-11-02T20:39:36.436Z,10.96
2022-11-02T20:44:42.645Z,9.38
2022-11-02T20:49:51.162Z,9.54
2022-11-02T20:54:54.786Z,10.50
2022-11-02T21:00:01.308Z,10.29
2022-11-02T21:05:07.343Z,9.98
2022-11-02T21:10:13.544Z,9.07
2022-11-02T21:15:19.612Z,12.81
2022-11-02T21:20:34.191Z,12.42
2022-11-02T21:25:31.796Z,13.43
2022-11-02T21:30:38.215Z,12.49
2022-11-02T21:35:44.862Z,10.71
2022-11-02T21:40:50.670Z,12.36
2022-11-02T21:45:57.004Z,11.12
2022-11-02T21:51:03.250Z,11.33
2022-11-02T21:56:09.427Z,13.14
2022-11-02T22:01:15.664Z,11.53
2022-11-02T22:06:21.722Z,11.74
2022-11-02T22:11:29.235Z,9.50
2022-11-02T22:16:33.813Z,9.51
2022-11-02T22:21:40.011Z,10.19
2022-11-02T22:26:46.137Z,9.91
2022-11-02T22:31:52.344Z,8.47
2022-11-02T22:36:58.507Z,10.66
2022-11-02T22:42:04.781Z,8.03
2022-11-02T22:47:11.172Z,9.52
2022-11-02T22:52:17.383Z,14.49
2022-11-02T22:57:23.546Z,10.16
2022-11-02T23:02:29.834Z,10.08
2022-11-02T23:07:35.887Z,12.03
2022-11-02T23:12:42.135Z,10.65
2022-11-02T23:17:48.253Z,11.52
2022-11-02T23:22:55.271Z,8.72
2022-11-02T23:28:01.454Z,9.21
2022-11-02T23:33:08.063Z,7.19
2022-11-02T23:38:13.394Z,10.24
2022-11-02T23:43:19.635Z,10.58
2022-11-02T23:48:25.775Z,12.14
2022-11-02T23:53:31.978Z,10.05
2022-11-02T23:58:38.467Z,8.02
